Villa Atuel, Argentina
Current Conditions -  °F | °C
As of 8:00 PM on Wednesday 17 Dec 2014 (Local Time) from SAME Reporting Station
Few Clouds Few Clouds  
Wind Chill: 82°   Ceiling: Unl
Heat Index: 82°   Visibility: 6mi
Dew Point: 48°   Wind: 2mph
Humidity: 30%   Direction: 110°ESE
Pressure: 29.91"   Gusts: NA
Location:  34.83°S, 67.92°W
Report Text: SAME 172300Z 11002KT 9999 FEW045CB FEW050TCU28/09 Q1013
Loading
Personal Weather Stations






























Interactive Weather Map New forecast layout! Learn more

10-Day Weather Forecast

Advertisements
Track Severe Weather on mobile